Time;durP1;ratioP1;P1;durP2;ratioP2;P2;SDS_P1;SDS_P2;PMS_P1;PMS_P2;Temp;Humidity;BMP_temperature;BMP_pressure;BME280_temperature;BME280_humidity;BME280_pressure;Samples;Min_cycle;Max_cycle;Signal;HPM_P1;HPM_P2
2021/09/11 00:01:19;;;;;;;7.60;4.18;;;;;;;;;;5054053;28;20017;-93
2021/09/11 00:03:44;;;;;;;9.85;4.15;;;;;;;;;;5054069;28;20040;-92
2021/09/11 00:06:09;;;;;;;7.60;4.18;;;;;;;;;;5054187;28;20400;-93
2021/09/11 00:08:35;;;;;;;10.73;3.92;;;;;;;;;;5053589;28;20021;-93
2021/09/11 00:11:00;;;;;;;9.48;3.97;;;;;;;;;;5055170;28;20017;-93
2021/09/11 00:13:25;;;;;;;11.68;3.78;;;;;;;;;;5053924;28;20024;-92
2021/09/11 00:15:51;;;;;;;14.10;3.70;;;;;;;;;;5054956;28;20021;-93
2021/09/11 00:18:16;;;;;;;8.73;3.90;;;;;;;;;;5053781;28;20029;-93
2021/09/11 00:20:41;;;;;;;8.32;4.32;;;;;;;;;;5054058;28;20032;-93
2021/09/11 00:23:10;;;;;;;8.57;3.60;;;;;;;;;;5054993;28;20021;-93
2021/09/11 00:25:36;;;;;;;7.88;3.60;;;;;;;;;;5053609;28;20009;-93
2021/09/11 00:28:02;;;;;;;11.23;4.00;;;;;;;;;;5052891;28;20047;-93
2021/09/11 00:30:27;;;;;;;5.80;3.33;;;;;;;;;;5053679;28;20032;-93
2021/09/11 00:32:52;;;;;;;7.15;3.55;;;;;;;;;;5053422;28;20017;-93
2021/09/11 00:35:17;;;;;;;8.40;3.75;;;;;;;;;;5072394;28;20020;-93
2021/09/11 00:37:43;;;;;;;10.98;4.00;;;;;;;;;;5061841;28;20537;-93
2021/09/11 00:40:10;;;;;;;9.68;4.18;;;;;;;;;;5073483;28;20476;-93
2021/09/11 00:42:35;;;;;;;6.50;3.85;;;;;;;;;;5073472;28;20017;-93
2021/09/11 00:45:01;;;;;;;6.20;3.55;;;;;;;;;;5062020;28;20376;-93
2021/09/11 00:47:26;;;;;;;5.72;3.50;;;;;;;;;;5070567;28;20900;-93
2021/09/11 00:49:51;;;;;;;9.80;4.07;;;;;;;;;;5073446;28;20036;-93
2021/09/11 00:52:16;;;;;;;8.90;4.07;;;;;;;;;;5058382;28;20021;-92
2021/09/11 00:54:45;;;;;;;7.50;4.10;;;;;;;;;;5053177;28;20017;-93
2021/09/11 00:57:10;;;;;;;8.52;4.25;;;;;;;;;;5053334;28;20630;-92
2021/09/11 00:59:35;;;;;;;10.32;4.28;;;;;;;;;;5054748;28;20116;-93
2021/09/11 01:02:00;;;;;;;10.07;4.38;;;;;;;;;;5064379;28;20019;-91
2021/09/11 01:04:26;;;;;;;10.18;4.32;;;;;;;;;;5070642;28;20035;-92
2021/09/11 01:06:52;;;;;;;7.50;4.43;;;;;;;;;;5054392;28;20424;-93
2021/09/11 01:09:17;;;;;;;10.60;4.15;;;;;;;;;;5067773;28;20044;-93
2021/09/11 01:11:42;;;;;;;6.60;4.00;;;;;;;;;;5060361;28;20013;-93
2021/09/11 01:14:07;;;;;;;7.32;4.25;;;;;;;;;;5072627;28;20036;-93
2021/09/11 01:16:33;;;;;;;7.40;3.50;;;;;;;;;;5072902;28;20037;-93
2021/09/11 01:18:58;;;;;;;11.48;3.80;;;;;;;;;;5072958;28;20537;-93
2021/09/11 01:21:24;;;;;;;8.40;3.67;;;;;;;;;;5058582;28;20392;-93
2021/09/11 01:23:49;;;;;;;7.25;3.40;;;;;;;;;;5065893;28;20025;-93
2021/09/11 01:26:14;;;;;;;7.90;3.33;;;;;;;;;;5052719;28;20131;-93
2021/09/11 01:28:40;;;;;;;8.07;3.80;;;;;;;;;;5067912;28;20544;-92
2021/09/11 01:31:05;;;;;;;6.43;3.65;;;;;;;;;;5065611;28;20099;-93
2021/09/11 01:33:30;;;;;;;6.43;3.47;;;;;;;;;;5068995;28;20048;-92
2021/09/11 01:35:55;;;;;;;8.70;3.85;;;;;;;;;;5063326;28;20039;-92
2021/09/11 01:38:21;;;;;;;12.88;3.78;;;;;;;;;;5073656;28;20013;-93
2021/09/11 01:40:46;;;;;;;5.53;3.40;;;;;;;;;;5067477;28;20017;-93
2021/09/11 01:43:11;;;;;;;8.48;4.00;;;;;;;;;;5064893;28;20460;-93
2021/09/11 01:45:36;;;;;;;7.20;3.83;;;;;;;;;;5057844;28;20063;-93
2021/09/11 01:48:01;;;;;;;13.90;4.10;;;;;;;;;;5062863;28;20021;-91
2021/09/11 01:50:26;;;;;;;9.18;3.53;;;;;;;;;;5058415;28;20021;-93
2021/09/11 01:52:52;;;;;;;6.75;3.60;;;;;;;;;;5072431;28;20020;-93
2021/09/11 01:55:18;;;;;;;10.85;3.78;;;;;;;;;;5072315;28;20456;-93
2021/09/11 01:57:44;;;;;;;10.57;3.97;;;;;;;;;;5072621;28;20460;-93
2021/09/11 02:00:14;;;;;;;7.50;3.80;;;;;;;;;;5060401;28;20079;-94
2021/09/11 02:02:40;;;;;;;11.60;4.13;;;;;;;;;;5071828;28;20403;-93
2021/09/11 02:05:05;;;;;;;7.50;3.97;;;;;;;;;;5061883;28;20017;-93
2021/09/11 02:07:30;;;;;;;9.70;4.20;;;;;;;;;;5067296;28;20023;-93
2021/09/11 02:09:55;;;;;;;12.60;4.88;;;;;;;;;;5053579;28;20074;-93
2021/09/11 02:12:21;;;;;;;11.90;4.25;;;;;;;;;;5066303;28;20112;-92
2021/09/11 02:14:46;;;;;;;10.32;4.63;;;;;;;;;;5058693;28;20142;-93
2021/09/11 02:17:11;;;;;;;10.70;5.22;;;;;;;;;;5063537;28;20029;-93
2021/09/11 02:19:36;;;;;;;10.98;4.68;;;;;;;;;;5053027;28;20020;-93
2021/09/11 02:22:05;;;;;;;10.32;5.00;;;;;;;;;;5062352;28;20472;-93
2021/09/11 02:24:31;;;;;;;8.43;4.55;;;;;;;;;;5070778;28;20537;-93
2021/09/11 02:26:56;;;;;;;11.85;4.07;;;;;;;;;;5052227;28;20052;-92
2021/09/11 02:29:22;;;;;;;10.23;4.57;;;;;;;;;;5052301;28;20059;-93
2021/09/11 02:31:47;;;;;;;17.80;5.28;;;;;;;;;;5072323;28;20016;-93
2021/09/11 02:34:12;;;;;;;8.48;4.50;;;;;;;;;;5059827;28;20074;-93
2021/09/11 02:36:37;;;;;;;10.18;4.30;;;;;;;;;;5055791;28;20029;-93
2021/09/11 02:39:03;;;;;;;8.85;4.60;;;;;;;;;;5065708;28;20029;-92
2021/09/11 02:41:28;;;;;;;9.20;4.20;;;;;;;;;;5051327;28;20032;-93
2021/09/11 02:43:53;;;;;;;10.80;4.47;;;;;;;;;;5057079;28;20016;-92
2021/09/11 02:46:18;;;;;;;7.70;4.07;;;;;;;;;;5072088;28;20032;-93
2021/09/11 02:48:44;;;;;;;11.02;4.32;;;;;;;;;;5070581;28;20021;-92
2021/09/11 02:51:09;;;;;;;7.32;3.90;;;;;;;;;;5059939;28;20020;-92
2021/09/11 02:53:34;;;;;;;13.05;4.47;;;;;;;;;;5058641;28;20107;-92
2021/09/11 02:56:00;;;;;;;9.60;4.35;;;;;;;;;;5055333;28;20063;-92
2021/09/11 02:58:25;;;;;;;9.05;3.95;;;;;;;;;;5067367;28;20094;-92
2021/09/11 03:00:51;;;;;;;9.25;4.07;;;;;;;;;;5072512;28;20020;-92
2021/09/11 03:03:16;;;;;;;10.57;4.13;;;;;;;;;;5064856;28;20032;-92
2021/09/11 03:05:41;;;;;;;12.50;4.15;;;;;;;;;;5075003;28;20024;-92
2021/09/11 03:08:07;;;;;;;9.30;4.00;;;;;;;;;;5067642;28;20024;-92
2021/09/11 03:10:32;;;;;;;11.25;3.80;;;;;;;;;;5057464;28;20023;-92
2021/09/11 03:12:57;;;;;;;13.65;3.65;;;;;;;;;;5054806;28;20025;-93
2021/09/11 03:15:22;;;;;;;7.40;3.55;;;;;;;;;;5055089;28;20020;-92
2021/09/11 03:17:47;;;;;;;9.38;4.18;;;;;;;;;;5054932;28;20036;-92
2021/09/11 03:20:13;;;;;;;6.22;3.72;;;;;;;;;;5055106;28;20025;-92
2021/09/11 03:22:38;;;;;;;11.98;4.22;;;;;;;;;;5055801;28;20028;-92
2021/09/11 03:25:03;;;;;;;7.40;4.05;;;;;;;;;;5061836;28;20018;-92
2021/09/11 03:27:29;;;;;;;10.80;3.85;;;;;;;;;;5062971;28;20096;-92
2021/09/11 03:29:54;;;;;;;6.75;3.60;;;;;;;;;;5073448;28;20013;-92
2021/09/11 03:32:19;;;;;;;6.70;3.50;;;;;;;;;;5063982;28;20024;-92
2021/09/11 03:34:47;;;;;;;9.05;4.07;;;;;;;;;;5065451;28;20056;-92
2021/09/11 03:37:13;;;;;;;9.00;4.07;;;;;;;;;;5074626;28;20024;-92
2021/09/11 03:39:38;;;;;;;7.40;3.33;;;;;;;;;;5063718;28;20357;-92
2021/09/11 03:42:03;;;;;;;12.25;4.03;;;;;;;;;;5072694;28;20536;-92
2021/09/11 03:44:28;;;;;;;11.15;3.90;;;;;;;;;;5065159;28;20025;-92
2021/09/11 03:46:54;;;;;;;8.95;3.70;;;;;;;;;;5054338;28;20021;-92
2021/09/11 03:49:19;;;;;;;7.80;3.38;;;;;;;;;;5061232;28;20032;-93
2021/09/11 03:51:44;;;;;;;9.82;3.55;;;;;;;;;;5074385;28;20021;-92
2021/09/11 03:54:09;;;;;;;8.45;3.17;;;;;;;;;;5075485;28;20023;-92
2021/09/11 03:56:34;;;;;;;5.07;3.20;;;;;;;;;;5064892;28;20365;-92
2021/09/11 03:59:00;;;;;;;12.45;3.35;;;;;;;;;;5070710;28;20024;-92
2021/09/11 04:01:25;;;;;;;8.60;3.90;;;;;;;;;;5075076;28;20040;-93
2021/09/11 04:03:50;;;;;;;8.55;3.15;;;;;;;;;;5073356;28;20021;-92
2021/09/11 04:06:15;;;;;;;10.10;3.50;;;;;;;;;;5058712;28;20387;-92
2021/09/11 04:08:40;;;;;;;6.13;3.03;;;;;;;;;;5074191;28;20020;-92
2021/09/11 04:11:06;;;;;;;8.77;3.30;;;;;;;;;;5075087;28;20019;-92
2021/09/11 04:13:33;;;;;;;7.03;3.42;;;;;;;;;;5073842;28;20048;-92
2021/09/11 04:15:58;;;;;;;9.10;2.95;;;;;;;;;;5059847;28;20021;-92
2021/09/11 04:18:23;;;;;;;6.90;3.30;;;;;;;;;;5073960;28;20078;-92
2021/09/11 04:20:49;;;;;;;6.90;3.25;;;;;;;;;;5059556;28;20017;-92
2021/09/11 04:23:14;;;;;;;6.70;2.95;;;;;;;;;;5073641;28;20353;-92
2021/09/11 04:25:39;;;;;;;7.28;3.22;;;;;;;;;;5061737;28;20495;-92
2021/09/11 04:28:04;;;;;;;9.15;3.55;;;;;;;;;;5071300;28;20023;-92
2021/09/11 04:30:30;;;;;;;7.95;3.45;;;;;;;;;;5054950;28;20021;-92
2021/09/11 04:32:55;;;;;;;10.25;3.10;;;;;;;;;;5055157;28;20557;-92
2021/09/11 04:35:20;;;;;;;11.60;3.10;;;;;;;;;;5069765;28;20107;-92
2021/09/11 04:37:45;;;;;;;4.55;2.72;;;;;;;;;;5054698;28;20106;-92
2021/09/11 04:40:11;;;;;;;5.03;3.28;;;;;;;;;;5056111;28;20071;-92
2021/09/11 04:42:36;;;;;;;6.40;2.80;;;;;;;;;;5073252;28;20020;-92
2021/09/11 04:45:01;;;;;;;8.70;3.35;;;;;;;;;;5073059;28;20659;-92
2021/09/11 04:47:26;;;;;;;4.78;2.78;;;;;;;;;;5067854;28;20048;-92
2021/09/11 04:49:52;;;;;;;6.05;2.95;;;;;;;;;;5053318;28;20111;-92
2021/09/11 04:52:17;;;;;;;7.15;3.28;;;;;;;;;;5070029;28;20017;-92
2021/09/11 04:54:42;;;;;;;5.00;2.90;;;;;;;;;;5063889;28;20025;-92
2021/09/11 04:57:07;;;;;;;11.55;3.22;;;;;;;;;;5054259;28;20031;-92
2021/09/11 04:59:32;;;;;;;5.47;2.83;;;;;;;;;;5063333;28;20028;-92
2021/09/11 05:01:58;;;;;;;11.85;3.05;;;;;;;;;;5053396;28;20017;-92
2021/09/11 05:04:23;;;;;;;6.78;2.72;;;;;;;;;;5066587;28;20032;-93
2021/09/11 05:06:48;;;;;;;6.53;2.83;;;;;;;;;;5072845;28;20020;-92
2021/09/11 05:09:14;;;;;;;7.57;3.33;;;;;;;;;;5073965;28;20025;-92
2021/09/11 05:11:39;;;;;;;8.55;3.00;;;;;;;;;;5074118;28;20012;-92
2021/09/11 05:14:04;;;;;;;5.75;2.70;;;;;;;;;;5073697;28;20103;-92
2021/09/11 05:16:29;;;;;;;5.75;3.10;;;;;;;;;;5071449;28;20112;-92
2021/09/11 05:18:54;;;;;;;6.68;2.80;;;;;;;;;;5052596;28;20441;-92
2021/09/11 05:21:20;;;;;;;6.28;2.50;;;;;;;;;;5066876;28;20048;-93
2021/09/11 05:23:45;;;;;;;6.25;2.55;;;;;;;;;;5054004;28;20642;-92
2021/09/11 05:26:10;;;;;;;5.15;2.63;;;;;;;;;;5054459;28;20025;-90
2021/09/11 05:28:35;;;;;;;9.05;2.60;;;;;;;;;;5064652;28;20018;-92
2021/09/11 05:31:01;;;;;;;9.57;3.60;;;;;;;;;;5052517;28;20017;-89
2021/09/11 05:33:26;;;;;;;6.15;2.63;;;;;;;;;;5066263;28;20017;-92
2021/09/11 05:35:51;;;;;;;9.85;2.50;;;;;;;;;;5056282;28;20018;-92
2021/09/11 05:38:16;;;;;;;8.60;2.20;;;;;;;;;;5053228;28;20047;-92
2021/09/11 05:40:42;;;;;;;5.60;2.40;;;;;;;;;;5066340;28;20078;-92
2021/09/11 05:43:07;;;;;;;9.35;2.58;;;;;;;;;;5052481;28;20017;-92
2021/09/11 05:45:32;;;;;;;5.55;2.08;;;;;;;;;;5057083;28;20502;-92
2021/09/11 05:47:57;;;;;;;6.50;2.50;;;;;;;;;;5062877;28;20016;-92
2021/09/11 05:50:23;;;;;;;7.13;2.50;;;;;;;;;;5053999;28;20029;-92
2021/09/11 05:52:48;;;;;;;7.40;2.53;;;;;;;;;;5065922;28;20024;-92
2021/09/11 05:55:15;;;;;;;6.32;2.38;;;;;;;;;;5067134;28;20024;-92
2021/09/11 05:57:40;;;;;;;6.28;2.30;;;;;;;;;;5066235;28;20399;-92
2021/09/11 06:00:06;;;;;;;4.30;2.28;;;;;;;;;;5052038;28;20021;-92
2021/09/11 06:02:31;;;;;;;6.88;2.63;;;;;;;;;;5069562;28;20016;-92
2021/09/11 06:04:56;;;;;;;6.03;2.30;;;;;;;;;;5072357;28;20017;-92
2021/09/11 06:07:21;;;;;;;5.63;2.40;;;;;;;;;;5070939;28;20017;-92
2021/09/11 06:09:46;;;;;;;9.25;3.03;;;;;;;;;;5059693;28;20066;-92
2021/09/11 06:12:12;;;;;;;5.65;2.85;;;;;;;;;;5073256;28;20470;-92
2021/09/11 06:14:37;;;;;;;9.68;3.13;;;;;;;;;;5072187;28;20376;-92
2021/09/11 06:17:03;;;;;;;10.52;3.38;;;;;;;;;;5062195;28;20021;-92
2021/09/11 06:19:28;;;;;;;8.98;3.35;;;;;;;;;;5056342;28;20020;-92
2021/09/11 06:21:53;;;;;;;8.82;3.58;;;;;;;;;;5072079;28;20024;-91
2021/09/11 06:24:18;;;;;;;10.50;3.83;;;;;;;;;;5071678;28;20043;-92
2021/09/11 06:26:44;;;;;;;13.73;4.00;;;;;;;;;;5072111;28;20017;-92
2021/09/11 06:29:09;;;;;;;11.32;3.65;;;;;;;;;;5061137;28;20102;-92
2021/09/11 06:31:34;;;;;;;15.10;4.45;;;;;;;;;;5059461;28;20021;-92
2021/09/11 06:33:59;;;;;;;9.27;4.63;;;;;;;;;;5075737;28;20036;-92
2021/09/11 06:36:24;;;;;;;15.15;3.97;;;;;;;;;;5063085;28;20013;-92
2021/09/11 06:38:50;;;;;;;11.90;3.88;;;;;;;;;;5073773;28;20032;-92
2021/09/11 06:41:15;;;;;;;17.10;4.43;;;;;;;;;;5066401;28;20029;-92
2021/09/11 06:43:40;;;;;;;14.68;4.25;;;;;;;;;;5063660;28;20389;-91
2021/09/11 06:46:05;;;;;;;10.77;4.65;;;;;;;;;;5068148;28;20013;-91
2021/09/11 06:48:31;;;;;;;7.05;4.20;;;;;;;;;;5070547;28;20021;-91
2021/09/11 06:50:56;;;;;;;12.55;5.28;;;;;;;;;;5070427;28;20009;-92
2021/09/11 06:53:21;;;;;;;10.77;4.30;;;;;;;;;;5067438;28;20020;-91
2021/09/11 06:55:46;;;;;;;11.18;4.68;;;;;;;;;;5075252;28;20414;-91
2021/09/11 06:58:11;;;;;;;8.40;4.50;;;;;;;;;;5075307;28;20070;-92
2021/09/11 07:00:38;;;;;;;11.15;4.35;;;;;;;;;;5062869;28;20118;-91
2021/09/11 07:03:03;;;;;;;13.02;4.85;;;;;;;;;;5074799;28;20032;-91
2021/09/11 07:05:28;;;;;;;11.73;4.80;;;;;;;;;;5061287;28;20025;-91
2021/09/11 07:07:53;;;;;;;10.95;4.47;;;;;;;;;;5069381;28;20063;-92
2021/09/11 07:10:19;;;;;;;10.20;4.80;;;;;;;;;;5056345;28;20029;-92
2021/09/11 07:12:44;;;;;;;14.60;5.20;;;;;;;;;;5064317;28;20012;-91
2021/09/11 07:15:09;;;;;;;11.93;5.18;;;;;;;;;;5064225;28;20076;-91
2021/09/11 07:17:34;;;;;;;12.55;4.35;;;;;;;;;;5055349;28;20048;-91
2021/09/11 07:20:00;;;;;;;8.27;4.50;;;;;;;;;;5054647;28;20017;-91
2021/09/11 07:22:25;;;;;;;11.95;4.70;;;;;;;;;;5053996;28;20028;-91
2021/09/11 07:24:50;;;;;;;15.45;4.05;;;;;;;;;;5068375;28;20060;-92
2021/09/11 07:27:17;;;;;;;10.02;3.65;;;;;;;;;;5054607;28;20025;-92
2021/09/11 07:29:42;;;;;;;11.30;4.20;;;;;;;;;;5068300;28;20004;-92
2021/09/11 07:32:08;;;;;;;7.72;4.60;;;;;;;;;;5061812;28;20535;-91
2021/09/11 07:34:33;;;;;;;8.25;3.97;;;;;;;;;;5054017;28;20483;-92
2021/09/11 07:36:58;;;;;;;10.20;4.15;;;;;;;;;;5057475;28;20116;-92
2021/09/11 07:39:23;;;;;;;11.98;4.35;;;;;;;;;;5059523;28;20056;-92
2021/09/11 07:41:49;;;;;;;10.65;4.95;;;;;;;;;;5043543;28;20533;-91
2021/09/11 07:44:14;;;;;;;9.02;4.70;;;;;;;;;;5062386;28;20021;-92
2021/09/11 07:46:39;;;;;;;9.02;4.30;;;;;;;;;;5067205;28;20095;-92
2021/09/11 07:49:04;;;;;;;10.50;5.03;;;;;;;;;;5069195;28;20025;-91
2021/09/11 07:51:30;;;;;;;10.88;3.75;;;;;;;;;;5065041;28;20024;-91
2021/09/11 07:53:55;;;;;;;8.98;3.05;;;;;;;;;;5058197;28;20484;-91
2021/09/11 07:56:20;;;;;;;8.57;4.60;;;;;;;;;;5062501;28;20075;-92
2021/09/11 07:58:46;;;;;;;13.30;5.55;;;;;;;;;;5074018;28;20024;-91
2021/09/11 08:01:11;;;;;;;13.27;4.80;;;;;;;;;;5073893;28;20017;-92
2021/09/11 08:03:36;;;;;;;14.02;5.32;;;;;;;;;;5073899;28;20029;-92
2021/09/11 08:06:07;;;;;;;11.38;4.50;;;;;;;;;;5060128;28;20472;-91
2021/09/11 08:08:32;;;;;;;11.45;4.97;;;;;;;;;;5064241;28;20020;-91
2021/09/11 08:10:58;;;;;;;12.75;5.13;;;;;;;;;;5068737;28;20020;-91
2021/09/11 08:13:23;;;;;;;14.68;4.70;;;;;;;;;;5062277;28;20028;-92
2021/09/11 08:15:48;;;;;;;14.82;5.55;;;;;;;;;;5074716;28;20020;-92
2021/09/11 08:18:13;;;;;;;10.40;4.22;;;;;;;;;;5067815;28;20039;-92
2021/09/11 08:20:38;;;;;;;11.95;5.45;;;;;;;;;;5054437;28;20377;-92
2021/09/11 08:23:04;;;;;;;11.13;4.78;;;;;;;;;;5067478;28;20032;-92
2021/09/11 08:25:30;;;;;;;10.32;5.43;;;;;;;;;;5064093;28;20048;-91
2021/09/11 08:27:55;;;;;;;10.88;4.68;;;;;;;;;;5057449;28;20051;-91
2021/09/11 08:30:20;;;;;;;12.27;4.90;;;;;;;;;;5061851;28;20024;-91
2021/09/11 08:32:46;;;;;;;9.77;5.65;;;;;;;;;;5060567;28;20108;-92
2021/09/11 08:35:13;;;;;;;13.82;5.38;;;;;;;;;;5068032;28;20028;-92
2021/09/11 08:37:38;;;;;;;14.30;6.20;;;;;;;;;;5061937;28;20077;-90
2021/09/11 08:40:04;;;;;;;11.18;5.13;;;;;;;;;;5065420;28;20021;-91
2021/09/11 08:42:29;;;;;;;12.07;5.25;;;;;;;;;;5054376;28;20052;-91
2021/09/11 08:44:55;;;;;;;11.05;4.97;;;;;;;;;;5066679;28;20032;-92
2021/09/11 08:47:20;;;;;;;13.02;6.38;;;;;;;;;;5054397;28;20021;-91
2021/09/11 08:49:45;;;;;;;12.23;5.32;;;;;;;;;;5060040;28;20021;-91
2021/09/11 08:52:12;;;;;;;10.05;4.95;;;;;;;;;;5061497;28;20047;-91
2021/09/11 08:54:38;;;;;;;7.35;4.43;;;;;;;;;;5066036;28;20032;-91
2021/09/11 08:57:30;;;;;;;12.18;5.03;;;;;;;;;;5059393;28;20029;-91
2021/09/11 08:59:56;;;;;;;7.95;3.55;;;;;;;;;;5061215;28;20065;-92
2021/09/11 09:02:22;;;;;;;10.43;5.28;;;;;;;;;;5066831;28;20020;-91
2021/09/11 09:04:47;;;;;;;13.25;4.85;;;;;;;;;;5057361;28;20028;-91
2021/09/11 09:07:27;;;;;;;9.80;4.75;;;;;;;;;;5050622;28;20594;-91
2021/09/11 09:09:56;;;;;;;9.38;4.35;;;;;;;;;;5060493;28;20028;-91
2021/09/11 09:12:21;;;;;;;8.50;4.28;;;;;;;;;;5068427;28;20035;-91
2021/09/11 09:14:58;;;;;;;8.10;4.28;;;;;;;;;;5063008;28;20020;-92
2021/09/11 09:17:36;;;;;;;9.90;4.55;;;;;;;;;;5046648;28;20025;-92
2021/09/11 09:20:21;;;;;;;5.97;3.92;;;;;;;;;;5059675;28;20019;-91
2021/09/11 09:23:13;;;;;;;15.32;4.75;;;;;;;;;;5055183;28;20029;-91
2021/09/11 09:25:38;;;;;;;9.40;3.95;;;;;;;;;;5065567;28;20112;-91
2021/09/11 09:28:04;;;;;;;10.00;4.30;;;;;;;;;;5059078;28;20443;-91
2021/09/11 09:30:39;;;;;;;8.52;4.20;;;;;;;;;;5065658;28;20021;-91
2021/09/11 09:33:05;;;;;;;15.93;4.53;;;;;;;;;;5066050;28;20013;-91
2021/09/11 09:35:31;;;;;;;11.52;4.25;;;;;;;;;;5059634;28;20025;-91
2021/09/11 09:37:57;;;;;;;10.18;4.32;;;;;;;;;;5065486;28;20020;-91
2021/09/11 09:40:46;;;;;;;7.32;3.80;;;;;;;;;;5061120;28;20021;-91
2021/09/11 09:43:12;;;;;;;11.00;4.40;;;;;;;;;;5064250;28;20041;-91
2021/09/11 09:45:38;;;;;;;8.05;2.80;;;;;;;;;;5062596;28;20024;-91
2021/09/11 09:48:10;;;;;;;8.75;3.55;;;;;;;;;;5062596;28;20008;-92
2021/09/11 09:50:36;;;;;;;7.15;4.28;;;;;;;;;;5068795;28;20375;-91
2021/09/11 09:53:02;;;;;;;5.45;2.45;;;;;;;;;;5052136;28;20376;-92
2021/09/11 09:55:28;;;;;;;7.55;3.88;;;;;;;;;;5053371;28;20167;-90
2021/09/11 09:57:53;;;;;;;5.82;2.58;;;;;;;;;;5054021;28;20025;-92
2021/09/11 10:00:18;;;;;;;8.38;3.67;;;;;;;;;;5058585;28;20408;-93
2021/09/11 10:02:44;;;;;;;7.75;3.42;;;;;;;;;;5067465;28;20427;-92
2021/09/11 10:05:13;;;;;;;7.82;3.40;;;;;;;;;;5067196;28;20016;-91
2021/09/11 10:07:43;;;;;;;8.23;3.63;;;;;;;;;;5061927;28;20013;-89
2021/09/11 10:10:09;;;;;;;7.15;3.42;;;;;;;;;;5065784;28;20017;-89
2021/09/11 10:12:41;;;;;;;6.00;3.50;;;;;;;;;;5071296;28;20020;-89
2021/09/11 10:15:24;;;;;;;5.05;3.10;;;;;;;;;;5065302;28;20112;-89
2021/09/11 10:17:50;;;;;;;8.68;3.60;;;;;;;;;;5074885;28;20526;-89
2021/09/11 10:20:15;;;;;;;8.57;3.63;;;;;;;;;;5066609;28;20024;-90
2021/09/11 10:23:00;;;;;;;12.93;3.10;;;;;;;;;;5069907;28;20112;-89
2021/09/11 10:25:42;;;;;;;6.97;3.55;;;;;;;;;;5065766;28;20024;-89
2021/09/11 10:28:11;;;;;;;7.82;3.40;;;;;;;;;;5061584;28;20414;-88
2021/09/11 10:30:56;;;;;;;9.60;2.20;;;;;;;;;;5076552;28;20441;-89
2021/09/11 10:33:37;;;;;;;6.70;3.58;;;;;;;;;;5069893;28;20048;-89
2021/09/11 10:36:03;;;;;;;6.25;3.05;;;;;;;;;;5068726;28;20013;-91
2021/09/11 10:38:41;;;;;;;7.75;3.47;;;;;;;;;;5075581;28;20025;-92
2021/09/11 10:41:08;;;;;;;9.48;3.60;;;;;;;;;;5066471;28;20053;-91
2021/09/11 10:43:33;;;;;;;6.28;3.60;;;;;;;;;;5069379;28;20020;-92
2021/09/11 10:46:02;;;;;;;8.52;3.28;;;;;;;;;;5062714;28;20042;-92
2021/09/11 10:48:47;;;;;;;8.77;3.45;;;;;;;;;;5075560;28;20025;-91
2021/09/11 10:51:13;;;;;;;6.80;3.67;;;;;;;;;;5045286;28;20096;-91
2021/09/11 10:53:38;;;;;;;9.75;4.10;;;;;;;;;;5054599;28;20536;-91
2021/09/11 10:56:23;;;;;;;13.40;4.32;;;;;;;;;;5056631;28;20510;-91
2021/09/11 10:59:08;;;;;;;7.63;3.67;;;;;;;;;;5069205;28;20052;-91
2021/09/11 11:01:52;;;;;;;8.15;3.67;;;;;;;;;;5054392;28;20029;-91
2021/09/11 11:04:23;;;;;;;8.95;3.40;;;;;;;;;;5073196;28;20020;-92
2021/09/11 11:06:50;;;;;;;11.45;3.95;;;;;;;;;;5065267;28;20063;-92
2021/09/11 11:09:18;;;;;;;6.93;4.07;;;;;;;;;;5071694;28;20038;-91
2021/09/11 11:11:43;;;;;;;5.78;3.78;;;;;;;;;;5075086;28;20019;-91
2021/09/11 11:14:08;;;;;;;9.95;3.80;;;;;;;;;;5056120;28;20112;-92
2021/09/11 11:16:44;;;;;;;7.07;3.95;;;;;;;;;;5073410;28;20115;-91
2021/09/11 11:19:09;;;;;;;8.65;4.18;;;;;;;;;;5052796;28;20035;-91
2021/09/11 11:21:36;;;;;;;9.73;4.45;;;;;;;;;;5074745;28;20480;-91
2021/09/11 11:24:01;;;;;;;9.15;4.70;;;;;;;;;;5062059;28;20028;-91
2021/09/11 11:26:26;;;;;;;10.00;5.13;;;;;;;;;;5068726;28;20013;-91
2021/09/11 11:28:52;;;;;;;13.77;4.82;;;;;;;;;;5064736;28;20024;-91
2021/09/11 11:31:17;;;;;;;8.80;4.93;;;;;;;;;;5072102;28;20016;-92
2021/09/11 11:33:45;;;;;;;9.85;5.20;;;;;;;;;;5062621;28;20024;-92
2021/09/11 11:36:10;;;;;;;10.20;5.60;;;;;;;;;;5075569;28;20035;-92
2021/09/11 11:38:36;;;;;;;7.72;5.00;;;;;;;;;;5072116;28;20451;-92
2021/09/11 11:41:04;;;;;;;13.43;4.95;;;;;;;;;;5063112;28;20381;-92
2021/09/11 11:43:33;;;;;;;13.15;5.20;;;;;;;;;;5061898;28;20376;-92
2021/09/11 11:45:58;;;;;;;10.02;5.68;;;;;;;;;;5062775;28;20028;-92
2021/09/11 11:48:24;;;;;;;7.22;2.83;;;;;;;;;;5074379;28;20122;-92
2021/09/11 11:50:49;;;;;;;11.75;5.90;;;;;;;;;;5074165;28;20012;-92
2021/09/11 11:53:15;;;;;;;12.18;6.60;;;;;;;;;;5063078;28;20761;-92
2021/09/11 11:55:45;;;;;;;12.05;5.78;;;;;;;;;;5068143;28;20040;-92
2021/09/11 11:58:10;;;;;;;12.27;6.45;;;;;;;;;;5064785;28;20464;-91
2021/09/11 12:00:39;;;;;;;12.40;6.53;;;;;;;;;;5059812;28;20055;-92
2021/09/11 12:03:04;;;;;;;10.45;5.85;;;;;;;;;;5054526;28;20480;-92
2021/09/11 12:05:29;;;;;;;14.13;7.65;;;;;;;;;;5067576;28;20023;-92
2021/09/11 12:07:54;;;;;;;9.63;5.43;;;;;;;;;;5074961;28;20017;-92
2021/09/11 12:10:21;;;;;;;10.80;5.18;;;;;;;;;;5073479;28;20055;-92
2021/09/11 12:12:51;;;;;;;11.15;6.05;;;;;;;;;;5060634;28;20030;-92
2021/09/11 12:15:18;;;;;;;10.13;5.53;;;;;;;;;;5073621;28;20391;-91
2021/09/11 12:18:10;;;;;;;13.30;5.25;;;;;;;;;;5073433;28;20021;-92
2021/09/11 12:20:42;;;;;;;16.80;6.80;;;;;;;;;;5072226;28;20028;-92
2021/09/11 12:23:15;;;;;;;16.27;6.88;;;;;;;;;;5068476;28;20029;-92
2021/09/11 12:25:46;;;;;;;15.13;7.03;;;;;;;;;;5066431;28;20480;-92
2021/09/11 12:28:29;;;;;;;15.40;6.57;;;;;;;;;;5069349;28;20464;-92
2021/09/11 12:30:55;;;;;;;18.00;8.35;;;;;;;;;;5066184;28;20082;-92
2021/09/11 12:33:20;;;;;;;15.50;7.40;;;;;;;;;;5073063;28;20024;-91
2021/09/11 12:35:45;;;;;;;13.93;7.07;;;;;;;;;;5067414;28;20075;-92
2021/09/11 12:38:10;;;;;;;14.77;6.60;;;;;;;;;;5067859;28;20038;-92
2021/09/11 12:40:36;;;;;;;22.70;6.90;;;;;;;;;;5068435;28;20032;-92
2021/09/11 12:43:01;;;;;;;15.40;6.93;;;;;;;;;;5063817;28;20025;-92
2021/09/11 12:45:27;;;;;;;11.90;7.13;;;;;;;;;;5070273;28;20013;-92
2021/09/11 12:47:52;;;;;;;13.23;6.38;;;;;;;;;;5062026;28;20103;-92
2021/09/11 12:50:17;;;;;;;10.45;5.53;;;;;;;;;;5070354;28;20023;-93
2021/09/11 12:52:42;;;;;;;11.35;6.35;;;;;;;;;;5074410;28;20370;-92
2021/09/11 12:55:07;;;;;;;11.25;5.55;;;;;;;;;;5072996;28;20024;-92
2021/09/11 12:57:33;;;;;;;10.77;6.40;;;;;;;;;;5058796;28;20019;-92
2021/09/11 12:59:58;;;;;;;9.75;5.88;;;;;;;;;;5063879;28;20345;-92
2021/09/11 13:02:23;;;;;;;10.20;5.63;;;;;;;;;;5053024;28;20056;-92
2021/09/11 13:04:53;;;;;;;9.68;6.05;;;;;;;;;;5062620;28;20020;-92
2021/09/11 13:07:19;;;;;;;13.60;5.85;;;;;;;;;;5058832;28;20021;-92
2021/09/11 13:09:44;;;;;;;10.82;5.13;;;;;;;;;;5073042;28;20683;-93
2021/09/11 13:12:09;;;;;;;14.18;5.70;;;;;;;;;;5072999;28;20024;-93
2021/09/11 13:14:34;;;;;;;9.80;5.85;;;;;;;;;;5072395;28;20023;-92
2021/09/11 13:17:00;;;;;;;11.73;5.88;;;;;;;;;;5064669;28;20025;-93
2021/09/11 13:19:26;;;;;;;10.60;5.45;;;;;;;;;;5073648;28;20020;-92
2021/09/11 13:21:51;;;;;;;10.85;5.63;;;;;;;;;;5063951;28;20028;-93
2021/09/11 13:24:16;;;;;;;10.88;6.00;;;;;;;;;;5053048;28;20476;-92
2021/09/11 13:26:41;;;;;;;10.85;5.82;;;;;;;;;;5072790;28;20013;-93
2021/09/11 13:29:06;;;;;;;10.65;6.47;;;;;;;;;;5060247;28;20013;-93
2021/09/11 13:31:33;;;;;;;10.80;3.92;;;;;;;;;;5070759;28;20066;-91
2021/09/11 13:33:58;;;;;;;5.45;3.08;;;;;;;;;;5060367;28;20055;-90
2021/09/11 13:36:24;;;;;;;9.95;2.90;;;;;;;;;;5054533;28;20056;-90
2021/09/11 13:38:50;;;;;;;5.90;3.00;;;;;;;;;;5096578;28;20012;-89
2021/09/11 13:41:19;;;;;;;4.95;3.20;;;;;;;;;;5068093;28;20037;-89
2021/09/11 13:43:44;;;;;;;6.28;2.95;;;;;;;;;;5068028;28;20028;-89
2021/09/11 13:46:10;;;;;;;4.28;3.05;;;;;;;;;;5069626;28;20013;-89
2021/09/11 13:48:36;;;;;;;8.20;3.08;;;;;;;;;;5071756;28;20025;-89
2021/09/11 13:51:02;;;;;;;9.82;4.30;;;;;;;;;;5059306;28;20024;-90
2021/09/11 13:53:27;;;;;;;8.63;3.40;;;;;;;;;;5067685;28;20028;-89
2021/09/11 13:55:53;;;;;;;6.38;2.88;;;;;;;;;;5057494;28;20020;-90
2021/09/11 13:58:18;;;;;;;9.10;3.30;;;;;;;;;;5068831;28;20472;-89
2021/09/11 14:00:43;;;;;;;7.95;3.70;;;;;;;;;;5054403;28;20032;-90
2021/09/11 14:03:09;;;;;;;10.90;4.75;;;;;;;;;;5053066;28;20028;-89
2021/09/11 14:05:34;;;;;;;9.63;4.80;;;;;;;;;;5052042;28;20048;-89
2021/09/11 14:07:59;;;;;;;10.73;4.93;;;;;;;;;;5072714;28;20495;-90
2021/09/11 14:10:25;;;;;;;11.85;4.88;;;;;;;;;;5056153;28;20016;-90
2021/09/11 14:12:50;;;;;;;6.70;4.57;;;;;;;;;;5100189;28;20052;-90
2021/09/11 14:15:16;;;;;;;13.43;6.07;;;;;;;;;;5052175;28;20032;-89
2021/09/11 14:17:41;;;;;;;13.60;5.70;;;;;;;;;;5055370;28;20138;-88
2021/09/11 14:20:07;;;;;;;12.07;5.95;;;;;;;;;;5063077;28;20024;-88
2021/09/11 14:22:32;;;;;;;17.60;6.78;;;;;;;;;;5053212;28;20021;-88
2021/09/11 14:24:57;;;;;;;10.68;5.97;;;;;;;;;;5071506;28;20113;-88
2021/09/11 14:27:22;;;;;;;12.07;6.10;;;;;;;;;;5071706;28;20410;-88
2021/09/11 14:29:48;;;;;;;16.77;5.78;;;;;;;;;;5071547;28;20598;-88
2021/09/11 14:32:13;;;;;;;11.35;5.10;;;;;;;;;;5061535;28;20017;-88
2021/09/11 14:34:38;;;;;;;11.95;5.60;;;;;;;;;;5054554;28;20465;-88